createdAt,value
2022-09-01T00:01:56.064Z,12.07
2022-09-01T00:04:44.438Z,11.70
2022-09-01T00:07:30.835Z,11.88
2022-09-01T00:10:17.037Z,12.23
2022-09-01T00:13:04.465Z,12.68
2022-09-01T00:16:58.360Z,12.55
2022-09-01T00:20:20.626Z,11.32
2022-09-01T00:23:07.314Z,11.93
2022-09-01T00:25:54.105Z,11.40
2022-09-01T00:28:43.455Z,11.63
2022-09-01T00:31:29.506Z,11.35
2022-09-01T00:34:16.718Z,11.50
2022-09-01T00:37:02.872Z,12.15
2022-09-01T00:39:48.835Z,11.55
2022-09-01T00:42:34.940Z,12.40
2022-09-01T00:45:22.722Z,12.57
2022-09-01T00:48:09.606Z,11.40
2022-09-01T00:50:57.002Z,11.85
2022-09-01T00:53:44.005Z,11.38
2022-09-01T00:56:30.938Z,11.88
2022-09-01T00:59:18.079Z,11.30
2022-09-01T01:02:03.790Z,11.30
2022-09-01T01:04:49.710Z,11.88
2022-09-01T01:07:38.950Z,12.15
2022-09-01T01:10:26.478Z,11.45
2022-09-01T01:13:15.960Z,11.60
2022-09-01T01:16:06.096Z,11.82
2022-09-01T01:18:53.317Z,12.35
2022-09-01T01:22:02.004Z,12.40
2022-09-01T01:24:49.522Z,12.25
2022-09-01T01:27:39.976Z,11.50
2022-09-01T01:30:32.452Z,11.63
2022-09-01T01:33:37.249Z,12.20
2022-09-01T01:36:36.379Z,11.02
2022-09-01T01:39:28.851Z,12.75
2022-09-01T01:42:14.859Z,11.82
2022-09-01T01:45:00.951Z,12.05
2022-09-01T01:47:56.478Z,11.27
2022-09-01T01:50:45.350Z,10.82
2022-09-01T01:53:32.084Z,11.73
2022-09-01T01:56:19.514Z,12.18
2022-09-01T01:59:05.398Z,11.98
2022-09-01T02:01:54.056Z,10.98
2022-09-01T02:04:41.766Z,11.43
2022-09-01T02:07:30.203Z,12.13
2022-09-01T02:10:19.286Z,11.90
2022-09-01T02:13:07.129Z,11.75
2022-09-01T02:15:55.090Z,12.13
2022-09-01T02:18:44.493Z,11.52
2022-09-01T02:21:30.599Z,11.75
2022-09-01T02:24:16.579Z,11.60
2022-09-01T02:27:03.011Z,11.60
2022-09-01T02:29:53.895Z,11.73
2022-09-01T02:32:41.906Z,12.15
2022-09-01T02:35:38.173Z,12.15
2022-09-01T02:38:29.226Z,12.45
2022-09-01T02:41:20.112Z,12.25
2022-09-01T02:44:11.860Z,11.80
2022-09-01T02:46:58.903Z,11.98
2022-09-01T02:49:46.885Z,11.55
2022-09-01T02:52:38.336Z,12.27
2022-09-01T02:55:24.747Z,12.68
2022-09-01T02:58:13.510Z,11.35
2022-09-01T03:01:01.620Z,11.98
2022-09-01T03:03:50.878Z,10.70
2022-09-01T03:06:37.830Z,11.82
2022-09-01T03:09:24.216Z,11.73
2022-09-01T03:12:10.755Z,11.63
2022-09-01T03:15:01.884Z,11.95
2022-09-01T03:17:52.720Z,10.63
2022-09-01T03:20:43.903Z,10.88
2022-09-01T03:23:31.419Z,12.38
2022-09-01T03:26:21.294Z,11.00
2022-09-01T03:29:12.159Z,10.85
2022-09-01T03:32:10.794Z,11.32
2022-09-01T03:35:22.030Z,11.25
2022-09-01T03:38:12.983Z,10.75
2022-09-01T03:41:02.317Z,10.60
2022-09-01T03:43:49.478Z,11.80
2022-09-01T03:46:37.163Z,11.57
2022-09-01T03:49:28.623Z,12.15
2022-09-01T03:52:17.434Z,10.77
2022-09-01T03:55:03.568Z,11.30
2022-09-01T03:57:54.524Z,11.30
2022-09-01T04:00:45.471Z,12.38
2022-09-01T04:03:39.481Z,12.32
2022-09-01T04:06:26.687Z,13.45
2022-09-01T04:09:13.156Z,12.48
2022-09-01T04:12:06.495Z,12.35
2022-09-01T04:14:53.131Z,12.20
2022-09-01T04:17:57.696Z,11.52
2022-09-01T04:20:49.738Z,12.63
2022-09-01T04:23:37.248Z,12.25
2022-09-01T04:26:28.216Z,11.45
2022-09-01T04:29:14.631Z,11.02
2022-09-01T04:32:04.101Z,12.25
2022-09-01T04:34:51.866Z,11.52
2022-09-01T04:37:37.633Z,10.35
2022-09-01T04:40:27.490Z,11.73
2022-09-01T04:43:14.034Z,11.07
2022-09-01T04:46:00.673Z,11.65
2022-09-01T04:48:48.004Z,11.30
2022-09-01T04:51:41.882Z,10.27
2022-09-01T04:54:35.109Z,11.18
2022-09-01T04:57:22.185Z,11.60
2022-09-01T05:00:23.446Z,11.32
2022-09-01T05:03:10.358Z,11.05
2022-09-01T05:06:20.543Z,11.20
2022-09-01T05:09:12.023Z,11.05
2022-09-01T05:12:22.149Z,10.77
2022-09-01T05:15:09.651Z,12.20
2022-09-01T05:17:56.335Z,12.20
2022-09-01T05:20:43.354Z,11.88
2022-09-01T05:23:29.925Z,11.20
2022-09-01T05:26:19.664Z,11.35
2022-09-01T05:29:10.914Z,12.32
2022-09-01T05:31:58.886Z,11.68
2022-09-01T05:34:46.246Z,12.63
2022-09-01T05:37:34.095Z,11.55
2022-09-01T05:40:21.578Z,12.32
2022-09-01T05:43:12.576Z,12.30
2022-09-01T05:46:06.728Z,14.40
2022-09-01T05:48:57.628Z,11.20
2022-09-01T05:51:50.809Z,11.25
2022-09-01T05:54:40.305Z,12.18
2022-09-01T05:57:35.135Z,13.05
2022-09-01T06:00:25.242Z,10.55
2022-09-01T06:03:11.847Z,11.90
2022-09-01T06:06:08.901Z,9.68
2022-09-01T06:08:59.663Z,10.02
2022-09-01T06:11:47.171Z,10.20
2022-09-01T06:14:33.318Z,9.43
2022-09-01T06:17:25.300Z,10.32
2022-09-01T06:20:14.368Z,9.65
2022-09-01T06:23:02.615Z,10.25
2022-09-01T06:25:48.677Z,9.82
2022-09-01T06:28:41.408Z,10.95
2022-09-01T06:31:34.122Z,10.55
2022-09-01T06:34:26.374Z,10.13
2022-09-01T06:37:13.426Z,10.48
2022-09-01T06:40:03.652Z,11.20
2022-09-01T06:42:52.522Z,11.05
2022-09-01T06:45:49.826Z,11.25
2022-09-01T06:48:47.462Z,10.07
2022-09-01T06:51:34.183Z,9.88
2022-09-01T06:54:21.901Z,10.32
2022-09-01T07:00:20.270Z,12.23
2022-09-01T07:03:10.015Z,12.93
2022-09-01T07:09:49.747Z,11.38
2022-09-01T07:13:08.947Z,11.57
2022-09-01T07:19:06.651Z,11.98
2022-09-01T07:22:35.138Z,12.38
2022-09-01T07:25:11.883Z,11.43
2022-09-01T07:34:38.667Z,16.42
2022-09-01T07:42:30.580Z,10.93
2022-09-01T07:44:15.040Z,20.67
2022-09-01T07:47:20.529Z,18.85
2022-09-01T07:53:36.449Z,17.67
2022-09-01T07:56:25.310Z,19.73
2022-09-01T07:59:15.167Z,20.45
2022-09-01T08:02:22.633Z,19.45
2022-09-01T08:05:16.086Z,17.48
2022-09-01T08:08:03.133Z,17.15
2022-09-01T08:10:51.982Z,18.38
2022-09-01T08:13:41.628Z,15.50
2022-09-01T08:16:39.347Z,16.00
2022-09-01T08:19:31.181Z,15.82
2022-09-01T08:22:29.257Z,16.83
2022-09-01T08:25:25.099Z,17.38
2022-09-01T08:28:14.899Z,16.33
2022-09-01T08:31:11.692Z,16.40
2022-09-01T08:34:00.147Z,15.60
2022-09-01T08:36:47.691Z,16.23
2022-09-01T08:39:34.216Z,13.98
2022-09-01T08:43:01.935Z,15.43
2022-09-01T08:45:56.377Z,14.77
2022-09-01T08:49:30.718Z,14.13
2022-09-01T08:52:45.922Z,14.80
2022-09-01T08:55:38.611Z,14.48
2022-09-01T08:58:31.991Z,15.73
2022-09-01T10:13:51.357Z,12.07
2022-09-01T10:16:42.057Z,11.95
2022-09-01T10:19:35.536Z,11.68
2022-09-01T10:22:24.853Z,11.30
2022-09-01T10:25:16.677Z,11.65
2022-09-01T10:28:20.878Z,11.93
2022-09-01T10:31:09.196Z,11.07
2022-09-01T10:33:58.639Z,11.85
2022-09-01T10:36:47.079Z,11.73
2022-09-01T10:39:36.777Z,11.48
2022-09-01T10:42:31.086Z,9.65
2022-09-01T10:45:32.367Z,10.20
2022-09-01T10:48:30.573Z,10.10
2022-09-01T10:51:21.167Z,9.50
2022-09-01T10:54:07.793Z,9.50
2022-09-01T10:56:54.087Z,9.30
2022-09-01T10:59:44.925Z,9.25
2022-09-01T11:02:42.451Z,9.65
2022-09-01T11:06:10.998Z,9.50
2022-09-01T11:11:56.876Z,9.13
2022-09-01T11:14:54.232Z,10.43
2022-09-01T11:17:56.730Z,9.85
2022-09-01T11:20:45.523Z,9.32
2022-09-01T11:23:31.692Z,10.00
2022-09-01T11:26:32.827Z,9.27
2022-09-01T11:29:57.542Z,10.05
2022-09-01T11:32:47.169Z,10.43
2022-09-01T11:35:33.669Z,9.07
2022-09-01T11:38:20.161Z,9.82
2022-09-01T11:41:06.483Z,9.70
2022-09-01T11:43:57.987Z,9.82
2022-09-01T11:46:44.343Z,9.85
2022-09-01T11:49:48.548Z,10.32
2022-09-01T11:52:36.325Z,9.30
2022-09-01T11:55:32.172Z,9.10
2022-09-01T11:58:33.620Z,9.60
2022-09-01T12:01:23.461Z,8.90
2022-09-01T12:04:25.292Z,8.57
2022-09-01T12:07:14.966Z,8.63
2022-09-01T12:10:00.909Z,8.32
2022-09-01T12:12:48.389Z,9.00
2022-09-01T12:15:36.617Z,8.25
2022-09-01T12:18:27.937Z,8.50
2022-09-01T12:21:25.253Z,8.77
2022-09-01T12:24:23.655Z,8.45
2022-09-01T12:27:09.910Z,9.23
2022-09-01T12:29:56.748Z,8.30
2022-09-01T12:32:42.817Z,8.18
2022-09-01T12:35:29.269Z,9.02
2022-09-01T12:38:21.281Z,8.63
2022-09-01T12:41:35.223Z,8.40
2022-09-01T12:44:37.266Z,8.68
2022-09-01T12:47:48.501Z,8.93
2022-09-01T12:50:37.692Z,8.07
2022-09-01T12:53:26.069Z,7.30
2022-09-01T12:56:21.796Z,8.05
2022-09-01T12:59:14.190Z,6.97
2022-09-01T13:02:40.816Z,7.72
2022-09-01T13:05:38.724Z,8.65
2022-09-01T13:08:33.294Z,7.32
2022-09-01T13:12:04.434Z,7.40
2022-09-01T13:14:32.603Z,7.47
2022-09-01T13:17:20.937Z,6.50
2022-09-01T13:21:27.675Z,6.50
2022-09-01T13:24:14.687Z,6.75
2022-09-01T13:30:09.643Z,6.72
2022-09-01T13:36:42.468Z,8.20
2022-09-01T13:39:18.699Z,8.02
2022-09-01T13:42:05.075Z,17.33
2022-09-01T13:44:55.203Z,9.10
2022-09-01T13:54:11.825Z,8.45
2022-09-01T13:56:57.610Z,8.75
2022-09-01T13:59:43.581Z,8.68
2022-09-01T14:02:29.930Z,8.70
2022-09-01T14:05:20.675Z,7.72
2022-09-01T14:08:07.892Z,7.97
2022-09-01T14:10:54.243Z,7.55
2022-09-01T14:13:40.246Z,8.00
2022-09-01T14:16:26.345Z,8.13
2022-09-01T14:19:13.464Z,8.32
2022-09-01T14:21:59.260Z,8.10
2022-09-01T14:24:45.235Z,8.38
2022-09-01T14:27:31.656Z,10.65
2022-09-01T14:30:21.373Z,7.47
2022-09-01T14:33:07.895Z,8.60
2022-09-01T14:35:54.406Z,8.85
2022-09-01T14:38:40.138Z,8.80
2022-09-01T14:41:27.164Z,9.38
2022-09-01T14:44:13.246Z,9.88
2022-09-01T14:46:59.098Z,8.20
2022-09-01T14:49:45.427Z,8.15
2022-09-01T14:52:31.591Z,8.40
2022-09-01T14:55:17.715Z,8.18
2022-09-01T14:58:07.946Z,8.23
2022-09-01T15:01:07.370Z,8.73
2022-09-01T15:04:11.566Z,8.27
2022-09-01T15:06:57.341Z,8.60
2022-09-01T15:09:43.109Z,8.40
2022-09-01T15:12:31.126Z,8.25
2022-09-01T15:15:17.850Z,9.20
2022-09-01T15:18:04.088Z,9.05
2022-09-01T15:20:51.231Z,9.07
2022-09-01T15:23:37.322Z,9.23
2022-09-01T15:26:23.273Z,9.18
2022-09-01T15:29:11.979Z,9.85
2022-09-01T15:31:57.870Z,13.55
2022-09-01T15:34:44.165Z,6.28
2022-09-01T15:37:30.251Z,8.38
2022-09-01T15:40:17.543Z,9.88
2022-09-01T15:43:05.620Z,9.30
2022-09-01T15:45:51.440Z,8.20
2022-09-01T15:48:38.194Z,10.43
2022-09-01T15:51:23.894Z,10.07
2022-09-01T15:54:17.329Z,11.48
2022-09-01T15:57:04.098Z,14.10
2022-09-01T15:59:50.174Z,10.63
2022-09-01T16:02:35.902Z,10.35
2022-09-01T16:05:21.825Z,10.85
2022-09-01T16:08:09.779Z,11.80
2022-09-01T16:10:56.182Z,13.20
2022-09-01T16:13:43.292Z,14.00
2022-09-01T16:16:42.325Z,13.00
2022-09-01T16:20:05.726Z,12.88
2022-09-01T16:22:57.710Z,9.90
2022-09-01T16:25:46.237Z,9.30
2022-09-01T16:28:36.661Z,10.77
2022-09-01T16:31:30.160Z,11.98
2022-09-01T16:34:19.662Z,12.73
2022-09-01T16:37:19.979Z,41.03
2022-09-01T16:40:10.207Z,64.32
2022-09-01T16:43:02.924Z,52.80
2022-09-01T16:46:07.604Z,76.65
2022-09-01T16:48:57.027Z,40.47
2022-09-01T16:51:53.135Z,39.13
2022-09-01T16:55:16.539Z,16.50
2022-09-01T16:58:25.114Z,10.55
2022-09-01T17:01:20.366Z,9.32
2022-09-01T17:04:06.250Z,9.95
2022-09-01T17:07:00.965Z,8.23
2022-09-01T17:10:25.682Z,7.60
2022-09-01T17:13:32.657Z,6.50
2022-09-01T17:16:30.644Z,6.95
2022-09-01T17:19:19.141Z,6.18
2022-09-01T17:22:08.710Z,6.82
2022-09-01T17:25:01.085Z,32.00
2022-09-01T17:27:51.163Z,22.95
2022-09-01T17:30:49.396Z,22.55
2022-09-01T17:33:53.132Z,12.50
2022-09-01T17:36:46.600Z,10.88
2022-09-01T17:39:49.527Z,10.85
2022-09-01T17:42:58.060Z,8.10
2022-09-01T17:46:03.413Z,9.25
2022-09-01T17:48:58.126Z,9.00
2022-09-01T17:52:08.187Z,7.15
2022-09-01T17:55:10.292Z,5.57
2022-09-01T17:58:01.360Z,6.93
2022-09-01T18:00:59.468Z,5.70
2022-09-01T18:03:59.251Z,4.03
2022-09-01T18:07:22.850Z,3.80
2022-09-01T18:10:13.092Z,3.70
2022-09-01T18:13:06.279Z,2.97
2022-09-01T18:15:58.514Z,2.50
2022-09-01T18:18:53.220Z,2.60
2022-09-01T18:21:49.272Z,3.72
2022-09-01T18:24:54.465Z,4.03
2022-09-01T18:27:43.418Z,2.80
2022-09-01T18:30:52.155Z,2.38
2022-09-01T18:33:59.828Z,3.25
2022-09-01T18:36:58.918Z,2.83
2022-09-01T18:40:04.290Z,3.10
2022-09-01T18:43:23.714Z,3.20
2022-09-01T18:46:28.812Z,2.35
2022-09-01T18:49:36.987Z,2.60
2022-09-01T18:52:42.611Z,2.22
2022-09-01T18:55:59.087Z,2.03
2022-09-01T18:59:09.112Z,1.90
2022-09-01T19:02:26.244Z,2.05
2022-09-01T19:05:19.756Z,1.80
2022-09-01T19:08:45.275Z,2.22
2022-09-01T19:11:55.435Z,2.00
2022-09-01T19:14:41.474Z,1.83
2022-09-01T19:18:04.512Z,1.83
2022-09-01T19:20:55.801Z,1.77
2022-09-01T19:23:50.155Z,2.30
2022-09-01T19:26:48.515Z,1.75
2022-09-01T19:29:44.167Z,1.75
2022-09-01T19:32:31.626Z,1.25
2022-09-01T19:35:18.274Z,2.13
2022-09-01T19:38:17.779Z,1.60
2022-09-01T19:41:18.101Z,1.55
2022-09-01T19:44:17.947Z,2.20
2022-09-01T19:47:11.918Z,2.00
2022-09-01T19:50:19.997Z,2.00
2022-09-01T19:53:27.910Z,2.63
2022-09-01T19:56:19.358Z,1.52
2022-09-01T19:59:25.327Z,1.67
2022-09-01T20:02:43.669Z,1.80
2022-09-01T20:05:34.347Z,1.65
2022-09-01T20:08:33.597Z,1.70
2022-09-01T20:11:40.222Z,1.30
2022-09-01T20:14:47.981Z,1.50
2022-09-01T20:17:57.233Z,1.33
2022-09-01T20:20:46.421Z,1.60
2022-09-01T20:23:41.759Z,1.70
2022-09-01T20:26:36.794Z,1.80
2022-09-01T20:29:50.345Z,1.58
2022-09-01T20:33:02.433Z,1.70
2022-09-01T20:36:33.271Z,1.90
2022-09-01T20:39:55.284Z,1.67
2022-09-01T20:43:14.173Z,1.65
2022-09-01T20:46:00.335Z,2.00
2022-09-01T20:48:46.277Z,1.55
2022-09-01T20:51:44.281Z,1.60
2022-09-01T20:54:36.602Z,1.88
2022-09-01T20:58:04.177Z,2.03
2022-09-01T21:01:17.426Z,2.47
2022-09-01T21:04:37.552Z,2.17
2022-09-01T21:07:37.343Z,2.28
2022-09-01T21:10:31.966Z,1.90
2022-09-01T21:13:21.700Z,1.85
2022-09-01T21:16:34.973Z,2.80
2022-09-01T21:20:03.275Z,1.65
2022-09-01T21:22:50.529Z,2.05
2022-09-01T21:25:36.611Z,1.85
2022-09-01T21:28:26.382Z,1.60
2022-09-01T21:31:12.259Z,1.90
2022-09-01T21:33:58.444Z,1.75
2022-09-01T21:36:44.475Z,1.70
2022-09-01T21:39:30.555Z,1.60
2022-09-01T21:42:16.480Z,2.00
2022-09-01T21:45:04.258Z,1.90
2022-09-01T21:47:51.387Z,1.67
2022-09-01T21:50:37.251Z,1.75
2022-09-01T21:53:23.273Z,1.70
2022-09-01T21:56:09.132Z,1.48
2022-09-01T21:58:57.851Z,2.08
2022-09-01T22:01:44.167Z,1.80
2022-09-01T22:04:30.144Z,1.80
2022-09-01T22:07:17.097Z,2.20
2022-09-01T22:10:02.919Z,1.80
2022-09-01T22:12:50.275Z,2.08
2022-09-01T22:15:43.103Z,2.13
2022-09-01T22:18:30.158Z,2.17
2022-09-01T22:21:17.520Z,2.15
2022-09-01T22:24:06.106Z,2.33
2022-09-01T22:26:52.165Z,2.10
2022-09-01T22:29:38.457Z,2.53
2022-09-01T22:32:27.736Z,2.25
2022-09-01T22:35:17.053Z,2.22
2022-09-01T22:38:02.796Z,2.20
2022-09-01T22:40:52.328Z,2.17
2022-09-01T22:43:38.290Z,1.92
2022-09-01T22:46:24.901Z,2.05
2022-09-01T22:49:11.303Z,1.80
2022-09-01T22:51:57.342Z,1.73
2022-09-01T22:54:43.647Z,1.70
2022-09-01T22:57:29.853Z,1.50
2022-09-01T23:00:16.034Z,1.80
2022-09-01T23:03:02.446Z,1.67
2022-09-01T23:05:50.106Z,1.40
2022-09-01T23:08:36.695Z,1.38
2022-09-01T23:11:23.091Z,1.50
2022-09-01T23:14:09.839Z,1.60
2022-09-01T23:16:55.522Z,1.70
2022-09-01T23:19:41.487Z,1.67
2022-09-01T23:22:27.197Z,1.42
2022-09-01T23:25:14.778Z,1.63
2022-09-01T23:28:01.009Z,1.15
2022-09-01T23:30:49.941Z,1.63
2022-09-01T23:33:35.607Z,1.65
2022-09-01T23:36:23.763Z,1.40
2022-09-01T23:39:09.797Z,1.60
2022-09-01T23:41:55.651Z,1.70
2022-09-01T23:44:41.739Z,1.75
2022-09-01T23:47:28.358Z,1.73
2022-09-01T23:50:14.473Z,1.48
2022-09-01T23:53:00.763Z,1.35
2022-09-01T23:55:51.399Z,1.35
2022-09-01T23:58:37.800Z,1.60
